Time;durP1;ratioP1;P1;durP2;ratioP2;P2;SDS_P1;SDS_P2;PMS_P1;PMS_P2;Temp;Humidity;BMP_temperature;BMP_pressure;BME280_temperature;BME280_humidity;BME280_pressure;Samples;Min_cycle;Max_cycle;Signal;HPM_P1;HPM_P2
2023/06/08 00:02:14;;;;;;;;;;;;;;;;;;5002301;28;19924;-62
2023/06/08 00:04:40;;;;;;;;;;;;;;;;;;5002472;28;20685;-63
2023/06/08 00:07:08;;;;;;;;;;;;;;;;;;5002452;28;20005;-63
2023/06/08 00:09:33;;;;;;;;;;;;;;;;;;5005216;28;19925;-64
2023/06/08 00:11:59;;;;;;;;;;;;;;;;;;5005368;28;19921;-63
2023/06/08 00:14:24;;;;;;;;;;;;;;;;;;5005991;28;19960;-64
2023/06/08 00:16:50;;;;;;;;;;;;;;;;;;5004811;28;20486;-64
2023/06/08 00:19:15;;;;;;;;;;;;;;;;;;5004511;28;19909;-64
2023/06/08 00:21:43;;;;;;;;;;;;;;;;;;5005704;28;19925;-64
2023/06/08 00:24:08;;;;;;;;;;;;;;;;;;5005675;28;19918;-64
2023/06/08 00:26:33;;;;;;;;;;;;;;;;;;5005002;28;20352;-64
2023/06/08 00:28:59;;;;;;;;;;;;;;;;;;5005012;28;20343;-64
2023/06/08 00:31:24;;;;;;;;;;;;;;;;;;5004446;28;19913;-64
2023/06/08 00:33:49;;;;;;;;;;;;;;;;;;5006189;28;19936;-64
2023/06/08 00:36:15;;;;;;;;;;;;;;;;;;5005937;28;19913;-60
2023/06/08 00:38:40;;;;;;;;;;;;;;;;;;5005670;28;20428;-60
2023/06/08 00:41:05;;;;;;;;;;;;;;;;;;5004968;28;19925;-60
2023/06/08 00:43:32;;;;;;;;;;;;;;;;;;5004557;28;20276;-60
2023/06/08 00:45:58;;;;;;;;;;;;;;;;;;5005509;28;20244;-61
2023/06/08 00:48:25;;;;;;;;;;;;;;;;;;5004316;28;19917;-59
2023/06/08 00:50:50;;;;;;;;;;;;;;;;;;5004020;28;19947;-59
2023/06/08 00:53:16;;;;;;;;;;;;;;;;;;5004124;28;19913;-64
2023/06/08 00:55:43;;;;;;;;;;;;;;;;;;5006035;28;19954;-58
2023/06/08 00:58:13;;;;;;;;;;;;;;;;;;5004267;28;19914;-58
2023/06/08 01:00:38;;;;;;;;;;;;;;;;;;5005858;28;19924;-61
2023/06/08 01:03:04;;;;;;;;;;;;;;;;;;5005072;28;20224;-58
2023/06/08 01:05:32;;;;;;;;;;;;;;;;;;5020360;28;19913;-59
2023/06/08 01:07:59;;;;;;;;;;;;;;;;;;5007074;28;19940;-59
2023/06/08 01:10:28;;;;;;;;;;;;;;;;;;5019169;28;20352;-59
2023/06/08 01:12:53;;;;;;;;;;;;;;;;;;5004860;28;20394;-58
2023/06/08 01:15:19;;;;;;;;;;;;;;;;;;5004931;28;19913;-59
2023/06/08 01:17:45;;;;;;;;;;;;;;;;;;5019428;28;20437;-59
2023/06/08 01:20:12;;;;;;;;;;;;;;;;;;5003018;28;20318;-59
2023/06/08 01:22:38;;;;;;;;;;;;;;;;;;5006451;28;19929;-59
2023/06/08 01:25:04;;;;;;;;;;;;;;;;;;5005002;28;20318;-59
2023/06/08 01:27:36;;;;;;;;;;;;;;;;;;5005047;28;19916;-59
2023/06/08 01:30:02;;;;;;;;;;;;;;;;;;5018525;28;19960;-59
2023/06/08 01:32:27;;;;;;;;;;;;;;;;;;4992593;28;20021;-60
2023/06/08 01:34:52;;;;;;;;;;;;;;;;;;5003977;28;19913;-60
2023/06/08 01:37:18;;;;;;;;;;;;;;;;;;5004646;28;20027;-61
2023/06/08 01:39:43;;;;;;;;;;;;;;;;;;5007128;28;19959;-60
2023/06/08 01:42:08;;;;;;;;;;;;;;;;;;5004249;28;20640;-61
2023/06/08 01:44:34;;;;;;;;;;;;;;;;;;5004340;28;19992;-60
2023/06/08 01:46:59;;;;;;;;;;;;;;;;;;5005427;28;20021;-59
2023/06/08 01:49:24;;;;;;;;;;;;;;;;;;5003791;28;19912;-61
2023/06/08 01:51:50;;;;;;;;;;;;;;;;;;5003791;28;20454;-62
2023/06/08 01:54:15;;;;;;;;;;;;;;;;;;5003733;28;20019;-60
2023/06/08 01:56:41;;;;;;;;;;;;;;;;;;5005930;28;19926;-60
2023/06/08 01:59:08;;;;;;;;;;;;;;;;;;5002746;28;20020;-61
2023/06/08 02:01:33;;;;;;;;;;;;;;;;;;5006494;28;19921;-63
2023/06/08 02:03:58;;;;;;;;;;;;;;;;;;5001925;28;19921;-61
2023/06/08 02:06:24;;;;;;;;;;;;;;;;;;5003903;28;20283;-60
2023/06/08 02:08:49;;;;;;;;;;;;;;;;;;5003478;28;20024;-61
2023/06/08 02:11:15;;;;;;;;;;;;;;;;;;5004218;28;19913;-61
2023/06/08 02:13:40;;;;;;;;;;;;;;;;;;5003086;28;20098;-61
2023/06/08 02:16:06;;;;;;;;;;;;;;;;;;5004347;28;19921;-59
2023/06/08 02:18:34;;;;;;;;;;;;;;;;;;5004859;28;20355;-61
2023/06/08 02:21:02;;;;;;;;;;;;;;;;;;5008709;28;19951;-59
2023/06/08 02:23:27;;;;;;;;;;;;;;;;;;5004197;28;19917;-59
2023/06/08 02:25:52;;;;;;;;;;;;;;;;;;5005282;28;19913;-59
2023/06/08 02:28:18;;;;;;;;;;;;;;;;;;5002960;28;19914;-59
2023/06/08 02:30:43;;;;;;;;;;;;;;;;;;5000582;28;20360;-60
2023/06/08 02:33:08;;;;;;;;;;;;;;;;;;5003010;28;19921;-59
2023/06/08 02:35:34;;;;;;;;;;;;;;;;;;5002632;28;19913;-60
2023/06/08 02:37:59;;;;;;;;;;;;;;;;;;5001726;28;20004;-60
2023/06/08 02:40:24;;;;;;;;;;;;;;;;;;5003075;28;19925;-59
2023/06/08 02:42:50;;;;;;;;;;;;;;;;;;5003118;28;20374;-59
2023/06/08 02:45:18;;;;;;;;;;;;;;;;;;5002479;28;19913;-61
2023/06/08 02:47:43;;;;;;;;;;;;;;;;;;5000656;28;19925;-60
2023/06/08 02:50:08;;;;;;;;;;;;;;;;;;5017470;28;19917;-61
2023/06/08 02:52:34;;;;;;;;;;;;;;;;;;5002274;28;19913;-58
2023/06/08 02:54:59;;;;;;;;;;;;;;;;;;5018036;28;20917;-59
2023/06/08 02:57:25;;;;;;;;;;;;;;;;;;5001565;28;20412;-65
2023/06/08 02:59:55;;;;;;;;;;;;;;;;;;5000053;28;19916;-66
2023/06/08 03:02:20;;;;;;;;;;;;;;;;;;5017278;28;19921;-66
2023/06/08 03:04:46;;;;;;;;;;;;;;;;;;5006139;28;19912;-66
2023/06/08 03:07:15;;;;;;;;;;;;;;;;;;5017728;28;20533;-65
2023/06/08 03:09:45;;;;;;;;;;;;;;;;;;5007940;28;20018;-65
2023/06/08 03:12:14;;;;;;;;;;;;;;;;;;5002870;28;19920;-66
2023/06/08 03:14:42;;;;;;;;;;;;;;;;;;4991734;28;20024;-65
2023/06/08 03:17:08;;;;;;;;;;;;;;;;;;5001893;28;19920;-66
2023/06/08 03:19:38;;;;;;;;;;;;;;;;;;5001454;28;19913;-65
2023/06/08 03:22:06;;;;;;;;;;;;;;;;;;5003219;28;19943;-68
2023/06/08 03:25:03;;;;;;;;;;;;;;;;;;4997833;28;19924;-66
2023/06/08 03:27:29;;;;;;;;;;;;;;;;;;4999175;28;19913;-67
2023/06/08 03:29:56;;;;;;;;;;;;;;;;;;5016207;28;19984;-66
2023/06/08 03:32:27;;;;;;;;;;;;;;;;;;5001246;28;20424;-67
2023/06/08 03:34:54;;;;;;;;;;;;;;;;;;5001452;28;19927;-67
2023/06/08 03:37:20;;;;;;;;;;;;;;;;;;5017720;28;20260;-68
2023/06/08 03:39:45;;;;;;;;;;;;;;;;;;4991578;28;19917;-67
2023/06/08 03:42:11;;;;;;;;;;;;;;;;;;5018990;28;20164;-67
2023/06/08 03:44:39;;;;;;;;;;;;;;;;;;5002265;28;19924;-66
2023/06/08 03:47:08;;;;;;;;;;;;;;;;;;5003767;28;19913;-66
2023/06/08 03:49:34;;;;;;;;;;;;;;;;;;4991011;28;20367;-69
2023/06/08 03:52:01;;;;;;;;;;;;;;;;;;5001184;28;20347;-67
2023/06/08 03:54:27;;;;;;;;;;;;;;;;;;5002637;28;19913;-67
2023/06/08 03:56:52;;;;;;;;;;;;;;;;;;5001684;28;19924;-66
2023/06/08 03:59:18;;;;;;;;;;;;;;;;;;5002150;28;20509;-66
2023/06/08 04:01:45;;;;;;;;;;;;;;;;;;5003836;28;19917;-65
2023/06/08 04:04:11;;;;;;;;;;;;;;;;;;5001903;28;19921;-66
2023/06/08 04:06:38;;;;;;;;;;;;;;;;;;5003418;28;19920;-70
2023/06/08 04:09:04;;;;;;;;;;;;;;;;;;5002090;28;19925;-70
2023/06/08 04:11:29;;;;;;;;;;;;;;;;;;5001580;28;19960;-69
2023/06/08 04:13:55;;;;;;;;;;;;;;;;;;5013812;28;19920;-69
2023/06/08 04:16:21;;;;;;;;;;;;;;;;;;5006764;28;19925;-70
2023/06/08 04:18:50;;;;;;;;;;;;;;;;;;5001058;28;19979;-69
2023/06/08 04:21:17;;;;;;;;;;;;;;;;;;5002561;28;19913;-69
2023/06/08 04:23:44;;;;;;;;;;;;;;;;;;5002039;28;20331;-70
2023/06/08 04:26:12;;;;;;;;;;;;;;;;;;5007173;28;19913;-70
2023/06/08 04:28:39;;;;;;;;;;;;;;;;;;4999824;28;19920;-69
2023/06/08 04:31:06;;;;;;;;;;;;;;;;;;5015848;28;19913;-69
2023/06/08 04:33:34;;;;;;;;;;;;;;;;;;4999662;28;20032;-70
2023/06/08 04:36:02;;;;;;;;;;;;;;;;;;5001645;28;20507;-70
2023/06/08 04:38:28;;;;;;;;;;;;;;;;;;5017689;28;19917;-70
2023/06/08 04:40:54;;;;;;;;;;;;;;;;;;5016123;28;19917;-70
2023/06/08 04:43:30;;;;;;;;;;;;;;;;;;5001152;28;19920;-70
2023/06/08 04:46:00;;;;;;;;;;;;;;;;;;5003297;28;19959;-70
2023/06/08 04:48:27;;;;;;;;;;;;;;;;;;5016976;28;19994;-70
2023/06/08 04:50:52;;;;;;;;;;;;;;;;;;5002575;28;20308;-70
2023/06/08 04:53:18;;;;;;;;;;;;;;;;;;5003595;28;19913;-70
2023/06/08 04:55:45;;;;;;;;;;;;;;;;;;5004561;28;19974;-70
2023/06/08 04:58:11;;;;;;;;;;;;;;;;;;5003603;28;20032;-70
2023/06/08 05:00:36;;;;;;;;;;;;;;;;;;5004386;28;19921;-69
2023/06/08 05:03:04;;;;;;;;;;;;;;;;;;5004956;28;20406;-69
2023/06/08 05:05:30;;;;;;;;;;;;;;;;;;5006136;28;20004;-70
2023/06/08 05:07:55;;;;;;;;;;;;;;;;;;5018838;28;19924;-70
2023/06/08 05:10:20;;;;;;;;;;;;;;;;;;5005251;28;19951;-70
2023/06/08 05:12:45;;;;;;;;;;;;;;;;;;5005463;28;19913;-69
2023/06/08 05:15:12;;;;;;;;;;;;;;;;;;5003550;28;19929;-70
2023/06/08 05:17:37;;;;;;;;;;;;;;;;;;5003918;28;19999;-62
2023/06/08 05:20:03;;;;;;;;;;;;;;;;;;5019987;28;20322;-61
2023/06/08 05:22:28;;;;;;;;;;;;;;;;;;5004928;28;20012;-62
2023/06/08 05:24:53;;;;;;;;;;;;;;;;;;5004225;28;19914;-62
2023/06/08 05:27:19;;;;;;;;;;;;;;;;;;5004507;28;19948;-62
2023/06/08 05:29:44;;;;;;;;;;;;;;;;;;5005348;28;19947;-61
2023/06/08 05:32:10;;;;;;;;;;;;;;;;;;5003921;28;19913;-62
2023/06/08 05:34:35;;;;;;;;;;;;;;;;;;5005810;28;19921;-62
2023/06/08 05:37:00;;;;;;;;;;;;;;;;;;5004964;28;20433;-61
2023/06/08 05:39:26;;;;;;;;;;;;;;;;;;5005617;28;20384;-62
2023/06/08 05:41:51;;;;;;;;;;;;;;;;;;5005504;28;19929;-61
2023/06/08 05:44:16;;;;;;;;;;;;;;;;;;5005425;28;20224;-60
2023/06/08 05:46:42;;;;;;;;;;;;;;;;;;5005448;28;19917;-62
2023/06/08 05:49:07;;;;;;;;;;;;;;;;;;5005481;28;20516;-64
2023/06/08 05:51:32;;;;;;;;;;;;;;;;;;5004973;28;20011;-64
2023/06/08 05:53:58;;;;;;;;;;;;;;;;;;5004999;28;19913;-62
2023/06/08 05:56:23;;;;;;;;;;;;;;;;;;5003433;28;19914;-63
2023/06/08 05:58:48;;;;;;;;;;;;;;;;;;5003069;28;19936;-62
2023/06/08 06:01:14;;;;;;;;;;;;;;;;;;5004374;28;19974;-64
2023/06/08 06:03:40;;;;;;;;;;;;;;;;;;5004766;28;20026;-66
2023/06/08 06:06:06;;;;;;;;;;;;;;;;;;5002470;28;19976;-63
2023/06/08 06:08:31;;;;;;;;;;;;;;;;;;5001498;28;19921;-62
2023/06/08 06:10:57;;;;;;;;;;;;;;;;;;5001264;28;20422;-63
2023/06/08 06:13:22;;;;;;;;;;;;;;;;;;5001666;28;20034;-62
2023/06/08 06:15:48;;;;;;;;;;;;;;;;;;5000750;28;19920;-65
2023/06/08 06:18:13;;;;;;;;;;;;;;;;;;5001978;28;20028;-62
2023/06/08 06:20:38;;;;;;;;;;;;;;;;;;5002565;28;19928;-62
2023/06/08 06:23:04;;;;;;;;;;;;;;;;;;5002757;28;19924;-62
2023/06/08 06:25:35;;;;;;;;;;;;;;;;;;4999391;28;20012;-62
2023/06/08 06:28:01;;;;;;;;;;;;;;;;;;5002450;28;19954;-60
2023/06/08 06:30:27;;;;;;;;;;;;;;;;;;5000662;28;19927;-59
2023/06/08 06:32:52;;;;;;;;;;;;;;;;;;5000681;28;20448;-60
2023/06/08 06:35:17;;;;;;;;;;;;;;;;;;5001602;28;19939;-59
2023/06/08 06:37:42;;;;;;;;;;;;;;;;;;5005674;28;19925;-59
2023/06/08 06:40:08;;;;;;;;;;;;;;;;;;5001486;28;19979;-60
2023/06/08 06:42:35;;;;;;;;;;;;;;;;;;5003115;28;20641;-60
2023/06/08 06:45:11;;;;;;;;;;;;;;;;;;4992314;28;20292;-60
2023/06/08 06:47:36;;;;;;;;;;;;;;;;;;5002288;28;19917;-59
2023/06/08 06:50:02;;;;;;;;;;;;;;;;;;5003732;28;20168;-59
2023/06/08 06:52:28;;;;;;;;;;;;;;;;;;5002535;28;19937;-58
2023/06/08 06:54:53;;;;;;;;;;;;;;;;;;5002976;28;20297;-59
2023/06/08 06:57:19;;;;;;;;;;;;;;;;;;5001857;28;19967;-59
2023/06/08 06:59:45;;;;;;;;;;;;;;;;;;5004246;28;20059;-59
2023/06/08 07:02:10;;;;;;;;;;;;;;;;;;5002642;28;20274;-59
2023/06/08 07:04:38;;;;;;;;;;;;;;;;;;5004010;28;19913;-59
2023/06/08 07:07:03;;;;;;;;;;;;;;;;;;5001870;28;19917;-58
2023/06/08 07:09:29;;;;;;;;;;;;;;;;;;5001574;28;19928;-58
2023/06/08 07:11:54;;;;;;;;;;;;;;;;;;5001202;28;20443;-58
2023/06/08 07:14:19;;;;;;;;;;;;;;;;;;4997989;28;20477;-59
2023/06/08 07:16:45;;;;;;;;;;;;;;;;;;5002317;28;19914;-58
2023/06/08 07:19:10;;;;;;;;;;;;;;;;;;5002364;28;19972;-59
2023/06/08 07:21:39;;;;;;;;;;;;;;;;;;5002038;28;19930;-58
2023/06/08 07:24:05;;;;;;;;;;;;;;;;;;4995831;28;19960;-59
2023/06/08 07:26:31;;;;;;;;;;;;;;;;;;4997050;28;20043;-57
2023/06/08 07:28:56;;;;;;;;;;;;;;;;;;5001685;28;19920;-61
2023/06/08 07:31:22;;;;;;;;;;;;;;;;;;5000950;28;20532;-61
2023/06/08 07:33:48;;;;;;;;;;;;;;;;;;5001239;28;20409;-59
2023/06/08 07:36:13;;;;;;;;;;;;;;;;;;5003053;28;20055;-67
2023/06/08 07:38:38;;;;;;;;;;;;;;;;;;5003037;28;20453;-61
2023/06/08 07:41:04;;;;;;;;;;;;;;;;;;5002032;28;20048;-69
2023/06/08 07:43:30;;;;;;;;;;;;;;;;;;5002041;28;19913;-66
2023/06/08 07:45:55;;;;;;;;;;;;;;;;;;5001550;28;20016;-65
2023/06/08 07:48:21;;;;;;;;;;;;;;;;;;5003746;28;20127;-67
2023/06/08 07:50:46;;;;;;;;;;;;;;;;;;5004404;28;19913;-66
2023/06/08 07:53:12;;;;;;;;;;;;;;;;;;5004513;28;19959;-66
2023/06/08 07:55:38;;;;;;;;;;;;;;;;;;5002168;28;19920;-66
2023/06/08 07:58:03;;;;;;;;;;;;;;;;;;5005800;28;19948;-66
2023/06/08 08:00:31;;;;;;;;;;;;;;;;;;5000689;28;19933;-66
2023/06/08 08:02:56;;;;;;;;;;;;;;;;;;5001254;28;20406;-64
2023/06/08 08:05:21;;;;;;;;;;;;;;;;;;5001774;28;19991;-64
2023/06/08 08:07:47;;;;;;;;;;;;;;;;;;5004054;28;19917;-66
2023/06/08 08:10:12;;;;;;;;;;;;;;;;;;4999371;28;19963;-66
2023/06/08 08:12:38;;;;;;;;;;;;;;;;;;5015678;28;19919;-66
2023/06/08 08:15:03;;;;;;;;;;;;;;;;;;4999447;28;19920;-65
2023/06/08 08:17:28;;;;;;;;;;;;;;;;;;5001097;28;19990;-66
2023/06/08 08:19:53;;;;;;;;;;;;;;;;;;5001839;28;19936;-66
2023/06/08 08:22:18;;;;;;;;;;;;;;;;;;5002426;28;20487;-65
2023/06/08 08:24:44;;;;;;;;;;;;;;;;;;5001882;28;20047;-65
2023/06/08 08:27:10;;;;;;;;;;;;;;;;;;5000594;28;20417;-68
2023/06/08 08:29:35;;;;;;;;;;;;;;;;;;5005096;28;19987;-67
2023/06/08 08:32:00;;;;;;;;;;;;;;;;;;5004459;28;20022;-65
2023/06/08 08:34:26;;;;;;;;;;;;;;;;;;5004730;28;19986;-65
2023/06/08 08:36:51;;;;;;;;;;;;;;;;;;5004340;28;20375;-66
2023/06/08 08:39:17;;;;;;;;;;;;;;;;;;5004490;28;20357;-65
2023/06/08 08:41:43;;;;;;;;;;;;;;;;;;5005413;28;19925;-66
2023/06/08 08:44:08;;;;;;;;;;;;;;;;;;5007600;28;19917;-66
2023/06/08 08:46:34;;;;;;;;;;;;;;;;;;5006843;28;19922;-68
2023/06/08 08:49:00;;;;;;;;;;;;;;;;;;5007844;28;19917;-65
2023/06/08 08:51:25;;;;;;;;;;;;;;;;;;5007439;28;19913;-64
2023/06/08 08:53:51;;;;;;;;;;;;;;;;;;5005918;28;19931;-65
2023/06/08 08:56:16;;;;;;;;;;;;;;;;;;5007016;28;20429;-64
2023/06/08 08:58:42;;;;;;;;;;;;;;;;;;5004019;28;19917;-65
2023/06/08 09:01:08;;;;;;;;;;;;;;;;;;5006623;28;19921;-60
2023/06/08 09:03:33;;;;;;;;;;;;;;;;;;5005006;28;19943;-62
2023/06/08 09:05:59;;;;;;;;;;;;;;;;;;5015306;28;20487;-61
2023/06/08 09:08:25;;;;;;;;;;;;;;;;;;4997575;28;19921;-63
2023/06/08 09:10:50;;;;;;;;;;;;;;;;;;4999975;28;19940;-64
2023/06/08 09:13:16;;;;;;;;;;;;;;;;;;5005806;28;19941;-63
2023/06/08 09:15:44;;;;;;;;;;;;;;;;;;5005336;28;19917;-63
2023/06/08 09:18:10;;;;;;;;;;;;;;;;;;5006754;28;19943;-63
2023/06/08 09:20:36;;;;;;;;;;;;;;;;;;5005398;28;19921;-63
2023/06/08 09:23:01;;;;;;;;;;;;;;;;;;5005186;28;20818;-63
2023/06/08 09:25:27;;;;;;;;;;;;;;;;;;5004226;28;19920;-69
2023/06/08 09:27:53;;;;;;;;;;;;;;;;;;5006519;28;19928;-67
2023/06/08 09:30:18;;;;;;;;;;;;;;;;;;5005028;28;20409;-69
2023/06/08 09:32:44;;;;;;;;;;;;;;;;;;5004025;28;19930;-68
2023/06/08 09:35:09;;;;;;;;;;;;;;;;;;5003569;28;20479;-68
2023/06/08 09:37:36;;;;;;;;;;;;;;;;;;4992975;28;19963;-68
2023/06/08 09:40:04;;;;;;;;;;;;;;;;;;5001109;28;20541;-68
2023/06/08 09:42:29;;;;;;;;;;;;;;;;;;5003345;28;20011;-69
2023/06/08 09:44:55;;;;;;;;;;;;;;;;;;5002925;28;20069;-69
2023/06/08 09:47:23;;;;;;;;;;;;;;;;;;5004434;28;20354;-68
2023/06/08 09:49:49;;;;;;;;;;;;;;;;;;5003746;28;20521;-68
2023/06/08 09:52:14;;;;;;;;;;;;;;;;;;5002401;28;19927;-68
2023/06/08 09:54:40;;;;;;;;;;;;;;;;;;5005044;28;19947;-67
2023/06/08 09:57:08;;;;;;;;;;;;;;;;;;5003854;28;20002;-59
2023/06/08 09:59:34;;;;;;;;;;;;;;;;;;5003783;28;19996;-59
2023/06/08 10:01:59;;;;;;;;;;;;;;;;;;5005519;28;19952;-60
2023/06/08 10:04:25;;;;;;;;;;;;;;;;;;5004680;28;20010;-59
2023/06/08 10:06:51;;;;;;;;;;;;;;;;;;5004245;28;19927;-61
2023/06/08 10:09:16;;;;;;;;;;;;;;;;;;5002619;28;20326;-61
2023/06/08 10:11:42;;;;;;;;;;;;;;;;;;5004844;28;20036;-60
2023/06/08 10:14:07;;;;;;;;;;;;;;;;;;5003031;28;20298;-60
2023/06/08 10:16:32;;;;;;;;;;;;;;;;;;5002674;28;19939;-59
2023/06/08 10:18:58;;;;;;;;;;;;;;;;;;5003659;28;19933;-61
2023/06/08 10:21:23;;;;;;;;;;;;;;;;;;5002489;28;20891;-60
2023/06/08 10:23:49;;;;;;;;;;;;;;;;;;5002843;28;19969;-60
2023/06/08 10:26:15;;;;;;;;;;;;;;;;;;5001109;28;20361;-61
2023/06/08 10:28:40;;;;;;;;;;;;;;;;;;5001754;28;19920;-59
2023/06/08 10:31:06;;;;;;;;;;;;;;;;;;5002312;28;19943;-59
2023/06/08 10:33:31;;;;;;;;;;;;;;;;;;5002930;28;20019;-59
2023/06/08 10:35:57;;;;;;;;;;;;;;;;;;5000338;28;20394;-59
2023/06/08 10:38:22;;;;;;;;;;;;;;;;;;5002299;28;19962;-59
2023/06/08 10:40:49;;;;;;;;;;;;;;;;;;5003583;28;20438;-59
2023/06/08 10:43:15;;;;;;;;;;;;;;;;;;5004038;28;20431;-59
2023/06/08 10:45:40;;;;;;;;;;;;;;;;;;5001624;28;19997;-59
2023/06/08 10:48:05;;;;;;;;;;;;;;;;;;5002250;28;19978;-60
2023/06/08 10:50:31;;;;;;;;;;;;;;;;;;5001229;28;19940;-59
2023/06/08 10:52:58;;;;;;;;;;;;;;;;;;5016602;28;19920;-60
2023/06/08 10:55:25;;;;;;;;;;;;;;;;;;5001684;28;20004;-59
2023/06/08 10:57:52;;;;;;;;;;;;;;;;;;5003063;28;19973;-60
2023/06/08 11:00:17;;;;;;;;;;;;;;;;;;5000315;28;20052;-59
2023/06/08 11:02:43;;;;;;;;;;;;;;;;;;5001316;28;20488;-59
2023/06/08 11:05:09;;;;;;;;;;;;;;;;;;5001538;28;20346;-59
2023/06/08 11:07:34;;;;;;;;;;;;;;;;;;4995702;28;19956;-60
2023/06/08 11:10:03;;;;;;;;;;;;;;;;;;5001910;28;20374;-60
2023/06/08 11:12:28;;;;;;;;;;;;;;;;;;5001722;28;19920;-60
2023/06/08 11:14:53;;;;;;;;;;;;;;;;;;5002824;28;19914;-59
2023/06/08 11:17:18;;;;;;;;;;;;;;;;;;5003338;28;20015;-59
2023/06/08 11:19:44;;;;;;;;;;;;;;;;;;5003449;28;19953;-60
2023/06/08 11:22:09;;;;;;;;;;;;;;;;;;5002192;28;20010;-58
2023/06/08 11:24:35;;;;;;;;;;;;;;;;;;5002323;28;19967;-56
2023/06/08 11:27:00;;;;;;;;;;;;;;;;;;5003121;28;20292;-58
2023/06/08 11:29:25;;;;;;;;;;;;;;;;;;5002009;28;19948;-58
2023/06/08 11:31:51;;;;;;;;;;;;;;;;;;5002504;28;20060;-58
2023/06/08 11:34:18;;;;;;;;;;;;;;;;;;5001132;28;19920;-61
2023/06/08 11:36:43;;;;;;;;;;;;;;;;;;5003027;28;19955;-61
2023/06/08 11:39:12;;;;;;;;;;;;;;;;;;5002392;28;19944;-58
2023/06/08 11:41:38;;;;;;;;;;;;;;;;;;4999229;28;19966;-62
2023/06/08 11:44:03;;;;;;;;;;;;;;;;;;5001981;28;19928;-62
2023/06/08 11:46:28;;;;;;;;;;;;;;;;;;5004216;28;20075;-63
2023/06/08 11:48:54;;;;;;;;;;;;;;;;;;5004296;28;19952;-61
2023/06/08 11:51:22;;;;;;;;;;;;;;;;;;5002447;28;19912;-61
2023/06/08 11:53:47;;;;;;;;;;;;;;;;;;5001629;28;20073;-61
2023/06/08 11:56:13;;;;;;;;;;;;;;;;;;5004164;28;20397;-61
2023/06/08 11:58:40;;;;;;;;;;;;;;;;;;5000776;28;19917;-57
2023/06/08 12:01:07;;;;;;;;;;;;;;;;;;5000098;28;19956;-57
2023/06/08 12:03:33;;;;;;;;;;;;;;;;;;5003704;28;19932;-58
2023/06/08 12:05:58;;;;;;;;;;;;;;;;;;5007071;28;19913;-60
2023/06/08 12:08:24;;;;;;;;;;;;;;;;;;5005896;28;19955;-59
2023/06/08 12:10:50;;;;;;;;;;;;;;;;;;5006656;28;19959;-59
2023/06/08 12:13:15;;;;;;;;;;;;;;;;;;5004423;28;20371;-59
2023/06/08 12:15:40;;;;;;;;;;;;;;;;;;5004732;28;19982;-61
2023/06/08 12:18:07;;;;;;;;;;;;;;;;;;5004983;28;20399;-60
2023/06/08 12:20:32;;;;;;;;;;;;;;;;;;5005763;28;19954;-61
2023/06/08 12:22:57;;;;;;;;;;;;;;;;;;5004795;28;20390;-61
2023/06/08 12:25:23;;;;;;;;;;;;;;;;;;5004589;28;20343;-61
2023/06/08 12:27:49;;;;;;;;;;;;;;;;;;5004386;28;19978;-61
2023/06/08 12:30:14;;;;;;;;;;;;;;;;;;5003998;28;19914;-61
2023/06/08 12:32:40;;;;;;;;;;;;;;;;;;5006350;28;19919;-61
2023/06/08 12:35:05;;;;;;;;;;;;;;;;;;5004798;28;19940;-61
2023/06/08 12:37:31;;;;;;;;;;;;;;;;;;5006795;28;20301;-60
2023/06/08 12:39:57;;;;;;;;;;;;;;;;;;5008442;28;19928;-68
2023/06/08 12:42:22;;;;;;;;;;;;;;;;;;5010283;28;20344;-70
2023/06/08 12:44:47;;;;;;;;;;;;;;;;;;5007351;28;19914;-68
2023/06/08 12:47:14;;;;;;;;;;;;;;;;;;5007713;28;19913;-66
2023/06/08 12:49:42;;;;;;;;;;;;;;;;;;5007631;28;20455;-67
2023/06/08 12:52:08;;;;;;;;;;;;;;;;;;5007504;28;19935;-67
2023/06/08 12:54:33;;;;;;;;;;;;;;;;;;5006139;28;20398;-66
2023/06/08 12:56:58;;;;;;;;;;;;;;;;;;5007308;28;20279;-67
2023/06/08 12:59:24;;;;;;;;;;;;;;;;;;5005333;28;19920;-65
2023/06/08 13:01:49;;;;;;;;;;;;;;;;;;5005861;28;19929;-65
2023/06/08 13:04:15;;;;;;;;;;;;;;;;;;5005969;28;20427;-66
2023/06/08 13:06:40;;;;;;;;;;;;;;;;;;5005806;28;19959;-66
2023/06/08 13:09:05;;;;;;;;;;;;;;;;;;5004200;28;20387;-68
2023/06/08 13:11:31;;;;;;;;;;;;;;;;;;5003700;28;20028;-66
2023/06/08 13:13:56;;;;;;;;;;;;;;;;;;5004259;28;20288;-65
2023/06/08 13:16:21;;;;;;;;;;;;;;;;;;5004008;28;19921;-65
2023/06/08 13:18:47;;;;;;;;;;;;;;;;;;5005293;28;19933;-66
2023/06/08 13:21:13;;;;;;;;;;;;;;;;;;5005081;28;19921;-67
2023/06/08 13:23:38;;;;;;;;;;;;;;;;;;5020304;28;19914;-66
2023/06/08 13:26:03;;;;;;;;;;;;;;;;;;5004832;28;20579;-60
2023/06/08 13:28:29;;;;;;;;;;;;;;;;;;5005636;28;19972;-59
2023/06/08 13:30:54;;;;;;;;;;;;;;;;;;5003705;28;20344;-59
2023/06/08 13:33:19;;;;;;;;;;;;;;;;;;5005200;28;20445;-59
2023/06/08 13:35:45;;;;;;;;;;;;;;;;;;5003717;28;19935;-61
2023/06/08 13:38:14;;;;;;;;;;;;;;;;;;5003213;28;20604;-60
2023/06/08 13:40:40;;;;;;;;;;;;;;;;;;5002373;28;19918;-59
2023/06/08 13:43:09;;;;;;;;;;;;;;;;;;5005519;28;19913;-60
2023/06/08 13:45:35;;;;;;;;;;;;;;;;;;5004562;28;19948;-59
2023/06/08 13:48:01;;;;;;;;;;;;;;;;;;5005316;28;20405;-60
2023/06/08 13:50:27;;;;;;;;;;;;;;;;;;5004788;28;20472;-59
2023/06/08 13:52:56;;;;;;;;;;;;;;;;;;5005024;28;19917;-59
2023/06/08 13:55:23;;;;;;;;;;;;;;;;;;5005805;28;19955;-60
2023/06/08 13:57:48;;;;;;;;;;;;;;;;;;5004947;28;19921;-60
2023/06/08 14:00:14;;;;;;;;;;;;;;;;;;5001374;28;19967;-59
2023/06/08 14:02:39;;;;;;;;;;;;;;;;;;5004096;28;19955;-59
2023/06/08 14:05:04;;;;;;;;;;;;;;;;;;5005085;28;19986;-61
2023/06/08 14:07:30;;;;;;;;;;;;;;;;;;5004503;28;19952;-60
2023/06/08 14:09:55;;;;;;;;;;;;;;;;;;5004270;28;19925;-60
2023/06/08 14:12:21;;;;;;;;;;;;;;;;;;5003863;28;19968;-60
2023/06/08 14:14:49;;;;;;;;;;;;;;;;;;5002683;28;20481;-60
2023/06/08 14:17:15;;;;;;;;;;;;;;;;;;5002940;28;19925;-60
2023/06/08 14:19:40;;;;;;;;;;;;;;;;;;5004866;28;20313;-60
2023/06/08 14:22:05;;;;;;;;;;;;;;;;;;5003677;28;19952;-62
2023/06/08 14:24:31;;;;;;;;;;;;;;;;;;5008817;28;19920;-60
2023/06/08 14:26:56;;;;;;;;;;;;;;;;;;5003147;28;19948;-59
2023/06/08 14:29:21;;;;;;;;;;;;;;;;;;5003809;28;19917;-59
2023/06/08 14:31:48;;;;;;;;;;;;;;;;;;5000952;28;20433;-59
2023/06/08 14:34:13;;;;;;;;;;;;;;;;;;5002571;28;19915;-60
2023/06/08 14:36:39;;;;;;;;;;;;;;;;;;5004526;28;19959;-60
2023/06/08 14:39:04;;;;;;;;;;;;;;;;;;5002477;28;19913;-60
2023/06/08 14:41:30;;;;;;;;;;;;;;;;;;5003598;28;19959;-60
2023/06/08 14:43:55;;;;;;;;;;;;;;;;;;5003281;28;20316;-60
2023/06/08 14:46:21;;;;;;;;;;;;;;;;;;5003604;28;19928;-60
2023/06/08 14:48:46;;;;;;;;;;;;;;;;;;5004329;28;20018;-60
2023/06/08 14:51:11;;;;;;;;;;;;;;;;;;5003217;28;19918;-59
2023/06/08 14:53:37;;;;;;;;;;;;;;;;;;5002349;28;20494;-58
2023/06/08 14:56:02;;;;;;;;;;;;;;;;;;5001561;28;19939;-60
2023/06/08 14:58:28;;;;;;;;;;;;;;;;;;5003013;28;20339;-60
2023/06/08 15:00:53;;;;;;;;;;;;;;;;;;5001630;28;20307;-61
2023/06/08 15:03:18;;;;;;;;;;;;;;;;;;5004407;28;19909;-60
2023/06/08 15:05:46;;;;;;;;;;;;;;;;;;5003925;28;20280;-60
2023/06/08 15:08:11;;;;;;;;;;;;;;;;;;5003689;28;20352;-60
2023/06/08 15:10:37;;;;;;;;;;;;;;;;;;5002736;28;19917;-60
2023/06/08 15:13:02;;;;;;;;;;;;;;;;;;5002416;28;19929;-59
2023/06/08 15:15:28;;;;;;;;;;;;;;;;;;5000911;28;19928;-60
2023/06/08 15:17:53;;;;;;;;;;;;;;;;;;5003100;28;19932;-60
2023/06/08 15:20:18;;;;;;;;;;;;;;;;;;5001850;28;19932;-59
2023/06/08 15:22:44;;;;;;;;;;;;;;;;;;5002910;28;20541;-59
2023/06/08 15:25:09;;;;;;;;;;;;;;;;;;5003395;28;19997;-60
2023/06/08 15:27:35;;;;;;;;;;;;;;;;;;5002009;28;19914;-59
2023/06/08 15:30:01;;;;;;;;;;;;;;;;;;5002020;28;19913;-60
2023/06/08 15:32:26;;;;;;;;;;;;;;;;;;5002465;28;19947;-63
2023/06/08 15:34:51;;;;;;;;;;;;;;;;;;5004025;28;19948;-59
2023/06/08 15:37:16;;;;;;;;;;;;;;;;;;5001116;28;20391;-60
2023/06/08 15:39:42;;;;;;;;;;;;;;;;;;5002755;28;19917;-60
2023/06/08 15:42:07;;;;;;;;;;;;;;;;;;5002673;28;19926;-60
2023/06/08 15:44:33;;;;;;;;;;;;;;;;;;5001760;28;19951;-60
2023/06/08 15:46:58;;;;;;;;;;;;;;;;;;5002935;28;19913;-56
2023/06/08 15:49:23;;;;;;;;;;;;;;;;;;5002923;28;19948;-55
2023/06/08 15:51:49;;;;;;;;;;;;;;;;;;5001929;28;19968;-57
2023/06/08 15:54:14;;;;;;;;;;;;;;;;;;5002403;28;19967;-55
2023/06/08 15:56:40;;;;;;;;;;;;;;;;;;5002088;28;20269;-56
2023/06/08 15:59:05;;;;;;;;;;;;;;;;;;5008321;28;19932;-56
2023/06/08 16:01:31;;;;;;;;;;;;;;;;;;5004241;28;20026;-55
2023/06/08 16:03:56;;;;;;;;;;;;;;;;;;5003688;28;19925;-54
2023/06/08 16:06:24;;;;;;;;;;;;;;;;;;4991650;28;20408;-57
2023/06/08 16:08:49;;;;;;;;;;;;;;;;;;4999878;28;19972;-54
2023/06/08 16:11:15;;;;;;;;;;;;;;;;;;4999803;28;20483;-55
2023/06/08 16:13:40;;;;;;;;;;;;;;;;;;5000962;28;19913;-57
2023/06/08 16:16:06;;;;;;;;;;;;;;;;;;5001484;28;20595;-58
2023/06/08 16:18:31;;;;;;;;;;;;;;;;;;5003063;28;20478;-56
2023/06/08 16:20:56;;;;;;;;;;;;;;;;;;5001818;28;19969;-56
2023/06/08 16:23:22;;;;;;;;;;;;;;;;;;5000071;28;19940;-56
2023/06/08 16:25:47;;;;;;;;;;;;;;;;;;5001655;28;20364;-58
2023/06/08 16:28:13;;;;;;;;;;;;;;;;;;5002618;28;19983;-58
2023/06/08 16:30:38;;;;;;;;;;;;;;;;;;4999222;28;19913;-59
2023/06/08 16:33:03;;;;;;;;;;;;;;;;;;5001971;28;19948;-58
2023/06/08 16:35:29;;;;;;;;;;;;;;;;;;5000998;28;20023;-58
2023/06/08 16:37:55;;;;;;;;;;;;;;;;;;5003227;28;20016;-58